createdAt,value
2024-05-09T00:00:31.647Z,4.63
2024-05-09T00:03:05.804Z,3.00
2024-05-09T00:05:32.762Z,5.55
2024-05-09T00:07:59.914Z,3.47
2024-05-09T00:10:35.011Z,2.90
2024-05-09T00:13:04.686Z,2.72
2024-05-09T00:15:31.564Z,3.08
2024-05-09T00:17:58.492Z,3.55
2024-05-09T00:20:33.582Z,3.00
2024-05-09T00:23:05.176Z,2.78
2024-05-09T00:25:31.890Z,3.45
2024-05-09T00:27:58.547Z,3.05
2024-05-09T00:30:33.218Z,2.88
2024-05-09T00:33:03.194Z,5.25
2024-05-09T00:35:30.432Z,4.25
2024-05-09T00:37:57.381Z,3.05
2024-05-09T00:40:35.064Z,2.90
2024-05-09T00:43:06.404Z,3.47
2024-05-09T00:45:34.403Z,3.20
2024-05-09T00:48:03.546Z,3.25
2024-05-09T00:50:36.116Z,6.50
2024-05-09T00:53:07.326Z,3.25
2024-05-09T00:55:38.044Z,3.10
2024-05-09T00:58:05.485Z,3.47
2024-05-09T01:00:38.748Z,2.95
2024-05-09T01:03:12.518Z,3.38
2024-05-09T01:05:41.139Z,3.28
2024-05-09T01:08:08.926Z,3.42
2024-05-09T01:10:36.989Z,3.30
2024-05-09T01:13:04.708Z,3.55
2024-05-09T01:15:32.081Z,3.78
2024-05-09T01:18:01.410Z,3.70
2024-05-09T01:20:37.493Z,3.75
2024-05-09T01:23:09.730Z,3.85
2024-05-09T01:25:37.145Z,3.65
2024-05-09T01:28:04.173Z,3.63
2024-05-09T01:30:35.109Z,3.70
2024-05-09T01:33:08.817Z,4.10
2024-05-09T01:35:40.383Z,4.18
2024-05-09T01:38:07.531Z,4.40
2024-05-09T01:40:38.569Z,4.30
2024-05-09T01:43:10.899Z,4.10
2024-05-09T01:45:39.158Z,4.13
2024-05-09T01:48:06.830Z,4.05
2024-05-09T01:50:38.949Z,3.72
2024-05-09T01:53:13.097Z,4.50
2024-05-09T01:55:42.973Z,6.50
2024-05-09T01:58:10.074Z,3.85
2024-05-09T02:00:40.810Z,4.53
2024-05-09T02:03:12.682Z,5.25
2024-05-09T02:05:42.861Z,4.40
2024-05-09T02:08:13.804Z,4.72
2024-05-09T02:10:40.578Z,4.80
2024-05-09T02:13:07.828Z,4.20
2024-05-09T02:15:34.696Z,4.55
2024-05-09T02:18:01.610Z,4.75
2024-05-09T02:20:34.233Z,4.55
2024-05-09T02:23:04.654Z,5.47
2024-05-09T02:25:32.223Z,4.47
2024-05-09T02:27:59.161Z,5.00
2024-05-09T02:30:35.833Z,4.30
2024-05-09T02:33:07.653Z,5.05
2024-05-09T02:35:34.890Z,4.75
2024-05-09T02:38:01.784Z,4.70
2024-05-09T02:40:36.025Z,5.00
2024-05-09T02:43:05.684Z,4.03
2024-05-09T02:45:32.926Z,5.10
2024-05-09T02:48:00.027Z,4.30
2024-05-09T02:50:34.444Z,4.93
2024-05-09T02:53:06.038Z,4.68
2024-05-09T02:55:33.269Z,5.10
2024-05-09T02:58:00.010Z,4.10
2024-05-09T03:00:35.169Z,3.88
2024-05-09T03:03:07.412Z,4.57
2024-05-09T03:05:34.440Z,4.95
2024-05-09T03:08:01.357Z,4.47
2024-05-09T03:10:29.258Z,4.55
2024-05-09T03:13:09.176Z,4.53
2024-05-09T03:15:36.761Z,4.30
2024-05-09T03:18:06.537Z,4.80
2024-05-09T03:20:35.654Z,4.22
2024-05-09T03:23:06.942Z,4.25
2024-05-09T03:25:34.076Z,4.25
2024-05-09T03:28:00.860Z,5.00
2024-05-09T03:30:36.019Z,3.40
2024-05-09T03:33:10.683Z,3.63
2024-05-09T03:35:38.018Z,4.00
2024-05-09T03:38:04.965Z,3.60
2024-05-09T03:40:33.926Z,4.40
2024-05-09T03:43:00.679Z,3.72
2024-05-09T03:45:27.357Z,3.50
2024-05-09T03:47:54.198Z,3.42
2024-05-09T03:50:29.703Z,3.13
2024-05-09T03:53:01.352Z,3.15
2024-05-09T03:55:30.736Z,3.25
2024-05-09T03:57:57.422Z,3.83
2024-05-09T04:00:31.326Z,4.47
2024-05-09T04:03:06.418Z,3.20
2024-05-09T04:05:35.097Z,3.88
2024-05-09T04:08:02.139Z,2.70
2024-05-09T04:10:33.330Z,3.10
2024-05-09T04:13:01.806Z,3.03
2024-05-09T04:15:28.578Z,3.20
2024-05-09T04:17:55.993Z,3.22
2024-05-09T04:20:33.364Z,2.40
2024-05-09T04:23:06.833Z,2.78
2024-05-09T04:25:34.127Z,3.10
2024-05-09T04:28:00.878Z,3.83
2024-05-09T04:30:36.406Z,3.10
2024-05-09T04:35:34.184Z,2.50
2024-05-09T04:38:03.221Z,2.90
2024-05-09T04:40:34.198Z,3.67
2024-05-09T04:43:04.255Z,2.63
2024-05-09T04:45:31.106Z,5.43
2024-05-09T04:47:58.351Z,6.63
2024-05-09T04:50:35.196Z,3.92
2024-05-09T04:53:05.466Z,4.43
2024-05-09T04:55:32.886Z,6.45
2024-05-09T04:57:59.620Z,6.40
2024-05-09T05:00:34.508Z,5.13
2024-05-09T05:03:09.495Z,3.10
2024-05-09T05:05:38.276Z,3.80
2024-05-09T05:08:05.958Z,2.97
2024-05-09T05:10:36.275Z,3.88
2024-05-09T05:13:04.234Z,8.00
2024-05-09T05:15:30.878Z,7.22
2024-05-09T05:17:58.098Z,3.92
2024-05-09T05:20:32.552Z,3.85
2024-05-09T05:23:02.536Z,5.80
2024-05-09T05:25:29.337Z,3.90
2024-05-09T05:27:56.021Z,7.53
2024-05-09T05:30:28.763Z,8.02
2024-05-09T05:33:00.161Z,9.18
2024-05-09T05:35:27.278Z,5.38
2024-05-09T05:37:54.096Z,5.15
2024-05-09T05:40:28.222Z,4.10
2024-05-09T05:43:02.738Z,3.50
2024-05-09T05:45:29.410Z,3.72
2024-05-09T05:47:56.745Z,3.45
2024-05-09T05:50:28.161Z,8.45
2024-05-09T05:53:02.215Z,7.38
2024-05-09T05:55:29.064Z,8.40
2024-05-09T05:57:55.746Z,9.27
2024-05-09T06:00:29.746Z,10.23
2024-05-09T06:03:04.705Z,4.22
2024-05-09T06:05:31.791Z,4.90
2024-05-09T06:07:58.775Z,4.88
2024-05-09T06:10:30.269Z,4.43
2024-05-09T06:13:04.216Z,7.93
2024-05-09T06:15:30.964Z,9.98
2024-05-09T06:17:58.000Z,10.48
2024-05-09T06:20:34.293Z,6.18
2024-05-09T06:23:04.060Z,12.88
2024-05-09T06:25:30.881Z,9.38
2024-05-09T06:27:57.586Z,15.23
2024-05-09T06:30:30.839Z,15.63
2024-05-09T06:33:06.056Z,15.50
2024-05-09T06:35:33.717Z,16.85
2024-05-09T06:38:01.009Z,20.98
2024-05-09T06:40:36.310Z,19.85
2024-05-09T06:43:05.953Z,20.92
2024-05-09T06:45:35.602Z,11.70
2024-05-09T06:48:02.629Z,20.08
2024-05-09T06:50:36.832Z,10.90
2024-05-09T06:53:05.109Z,16.95
2024-05-09T06:55:32.091Z,18.52
2024-05-09T06:57:58.830Z,21.35
2024-05-09T07:00:34.468Z,17.23
2024-05-09T07:03:13.107Z,11.82
2024-05-09T07:05:43.460Z,20.40
2024-05-09T07:08:10.345Z,17.75
2024-05-09T07:10:37.668Z,9.85
2024-05-09T07:13:11.372Z,15.25
2024-05-09T07:15:38.488Z,20.55
2024-05-09T07:18:09.876Z,18.63
2024-05-09T07:20:36.820Z,19.75
2024-05-09T07:23:03.724Z,18.70
2024-05-09T07:25:30.741Z,14.70
2024-05-09T07:27:57.628Z,14.95
2024-05-09T07:30:30.807Z,16.45
2024-05-09T07:33:02.558Z,19.55
2024-05-09T07:35:30.455Z,18.33
2024-05-09T07:37:57.577Z,18.52
2024-05-09T07:40:32.461Z,21.45
2024-05-09T07:43:07.555Z,18.98
2024-05-09T07:52:23.930Z,19.23
2024-05-09T07:53:39.038Z,19.45
2024-05-09T07:56:09.618Z,22.85
2024-05-09T07:58:37.069Z,15.63
2024-05-09T08:01:04.091Z,23.05
2024-05-09T08:03:31.449Z,21.20
2024-05-09T08:05:58.172Z,14.70
2024-05-09T08:08:25.013Z,21.92
2024-05-09T08:10:51.867Z,22.25
2024-05-09T08:13:18.789Z,20.98
2024-05-09T08:15:45.726Z,20.30
2024-05-09T08:18:12.902Z,22.02
2024-05-09T08:20:40.483Z,21.05
2024-05-09T08:23:07.406Z,25.40
2024-05-09T08:25:34.100Z,23.35
2024-05-09T08:28:00.868Z,22.88
2024-05-09T08:30:33.685Z,23.88
2024-05-09T08:33:04.493Z,25.73
2024-05-09T08:35:32.191Z,20.80
2024-05-09T08:37:59.182Z,23.65
2024-05-09T08:40:33.412Z,20.42
2024-05-09T08:43:03.281Z,23.30
2024-05-09T08:45:30.952Z,19.38
2024-05-09T08:47:58.884Z,21.75
2024-05-09T08:50:32.330Z,23.08
2024-05-09T08:53:05.275Z,21.85
2024-05-09T08:55:34.899Z,22.95
2024-05-09T08:58:03.679Z,20.45
2024-05-09T09:00:36.753Z,22.42
2024-05-09T09:03:06.152Z,22.52
2024-05-09T09:05:34.156Z,21.50
2024-05-09T09:08:04.728Z,19.80
2024-05-09T09:10:32.809Z,20.67
2024-05-09T09:13:03.293Z,20.30
2024-05-09T09:15:30.334Z,20.55
2024-05-09T09:17:57.775Z,21.85
2024-05-09T09:20:35.304Z,18.83
2024-05-09T09:23:03.908Z,19.90
2024-05-09T09:25:30.794Z,21.13
2024-05-09T09:27:58.550Z,22.95
2024-05-09T09:30:35.133Z,17.33
2024-05-09T09:33:05.502Z,18.23
2024-05-09T09:35:32.455Z,19.00
2024-05-09T09:38:02.468Z,17.75
2024-05-09T09:40:36.142Z,18.52
2024-05-09T09:43:14.128Z,21.70
2024-05-09T09:45:42.239Z,17.60
2024-05-09T09:48:10.632Z,16.30
2024-05-09T09:50:37.816Z,17.48
2024-05-09T09:53:05.354Z,17.83
2024-05-09T09:55:32.727Z,17.98
2024-05-09T09:58:02.648Z,19.75
2024-05-09T10:00:33.137Z,20.20
2024-05-09T10:03:01.610Z,20.58
2024-05-09T10:05:29.096Z,20.60
2024-05-09T10:07:56.589Z,21.30
2024-05-09T10:10:31.395Z,25.17
2024-05-09T10:13:06.951Z,19.48
2024-05-09T10:16:07.375Z,19.98
2024-05-09T10:18:41.055Z,19.75
2024-05-09T10:21:20.768Z,21.33
2024-05-09T10:23:57.420Z,20.55
2024-05-09T10:26:34.213Z,19.02
2024-05-09T10:29:01.508Z,19.60
2024-05-09T10:31:29.331Z,20.88
2024-05-09T10:33:56.497Z,20.33
2024-05-09T10:36:26.795Z,19.83
2024-05-09T10:38:54.433Z,19.15
2024-05-09T10:41:22.774Z,19.88
2024-05-09T10:43:50.134Z,18.85
2024-05-09T10:46:17.111Z,18.10
2024-05-09T10:48:44.436Z,19.35
2024-05-09T10:51:11.898Z,17.10
2024-05-09T10:53:46.022Z,19.15
2024-05-09T10:56:16.469Z,21.05
2024-05-09T10:58:43.308Z,17.85
2024-05-09T11:01:10.907Z,19.08
2024-05-09T11:03:38.797Z,17.95
2024-05-09T11:06:06.051Z,16.63
2024-05-09T11:08:33.126Z,17.50
2024-05-09T11:11:00.366Z,17.48
2024-05-09T11:13:33.897Z,16.38
2024-05-09T11:16:01.721Z,17.10
2024-05-09T11:18:33.476Z,15.80
2024-05-09T11:21:03.003Z,17.45
2024-05-09T11:23:29.893Z,15.70
2024-05-09T11:25:57.864Z,15.68
2024-05-09T11:28:26.822Z,15.68
2024-05-09T11:31:08.361Z,16.88
2024-05-09T11:33:43.859Z,17.05
2024-05-09T11:36:11.065Z,14.70
2024-05-09T11:38:37.721Z,14.70
2024-05-09T11:41:05.246Z,16.48
2024-05-09T11:43:32.301Z,15.20
2024-05-09T11:46:00.848Z,15.00
2024-05-09T11:48:28.103Z,15.43
2024-05-09T11:50:55.466Z,15.85
2024-05-09T11:53:22.418Z,14.98
2024-05-09T11:55:49.219Z,16.35
2024-05-09T11:58:16.004Z,16.27
2024-05-09T12:00:43.271Z,15.38
2024-05-09T12:03:10.060Z,15.00
2024-05-09T12:05:36.913Z,17.02
2024-05-09T12:08:04.771Z,16.70
2024-05-09T12:10:34.420Z,17.88
2024-05-09T12:13:06.584Z,19.38
2024-05-09T12:15:36.277Z,16.50
2024-05-09T12:18:04.532Z,16.63
2024-05-09T12:20:37.225Z,17.35
2024-05-09T12:23:06.925Z,16.10
2024-05-09T12:25:34.224Z,17.23
2024-05-09T12:28:01.268Z,15.15
2024-05-09T12:30:36.098Z,15.32
2024-05-09T12:33:11.107Z,16.35
2024-05-09T12:35:39.164Z,14.35
2024-05-09T12:38:05.827Z,14.35
2024-05-09T12:40:36.810Z,17.50
2024-05-09T12:43:09.889Z,18.02
2024-05-09T12:45:38.120Z,15.35
2024-05-09T12:48:05.637Z,17.98
2024-05-09T12:50:34.285Z,15.45
2024-05-09T12:53:03.039Z,16.02
2024-05-09T12:55:37.188Z,16.77
2024-05-09T12:58:11.525Z,17.40
2024-05-09T13:00:38.585Z,17.25
2024-05-09T13:03:05.768Z,18.20
2024-05-09T13:05:32.753Z,18.25
2024-05-09T13:07:59.648Z,17.77
2024-05-09T13:10:32.033Z,19.58
2024-05-09T13:13:01.302Z,20.02
2024-05-09T13:15:30.746Z,20.08
2024-05-09T13:18:00.558Z,18.85
2024-05-09T13:20:33.528Z,15.10
2024-05-09T13:23:03.167Z,12.63
2024-05-09T13:25:29.849Z,14.85
2024-05-09T13:27:57.460Z,15.50
2024-05-09T13:30:33.970Z,13.50
2024-05-09T13:33:06.627Z,12.18
2024-05-09T13:35:34.143Z,12.88
2024-05-09T13:38:01.783Z,13.82
2024-05-09T13:40:33.626Z,12.77
2024-05-09T13:43:05.854Z,13.13
2024-05-09T13:45:33.441Z,11.55
2024-05-09T13:48:02.936Z,12.40
2024-05-09T13:50:35.707Z,12.10
2024-05-09T13:53:05.079Z,13.30
2024-05-09T13:55:32.738Z,12.52
2024-05-09T13:57:59.568Z,12.05
2024-05-09T14:00:38.441Z,12.35
2024-05-09T14:03:12.101Z,12.00
2024-05-09T14:05:39.025Z,13.70
2024-05-09T14:08:06.152Z,11.65
2024-05-09T14:10:33.036Z,11.30
2024-05-09T14:13:00.460Z,11.90
2024-05-09T14:15:27.515Z,11.45
2024-05-09T14:17:55.066Z,11.43
2024-05-09T14:22:51.399Z,12.60
2024-05-09T14:25:18.284Z,11.90
2024-05-09T14:27:45.218Z,13.63
2024-05-09T14:30:18.467Z,12.88
2024-05-09T14:32:53.157Z,13.45
2024-05-09T14:35:20.010Z,12.75
2024-05-09T14:37:46.786Z,13.82
2024-05-09T14:40:26.288Z,14.02
2024-05-09T14:43:02.576Z,13.55
2024-05-09T14:45:29.763Z,17.23
2024-05-09T14:47:56.815Z,13.95
2024-05-09T14:50:28.315Z,16.00
2024-05-09T14:53:03.999Z,15.93
2024-05-09T14:55:30.913Z,15.85
2024-05-09T14:57:57.898Z,16.08
2024-05-09T15:00:29.034Z,15.05
2024-05-09T15:03:00.564Z,15.07
2024-05-09T15:05:27.639Z,13.20
2024-05-09T15:07:54.505Z,13.85
2024-05-09T15:10:27.475Z,12.55
2024-05-09T15:13:01.344Z,10.82
2024-05-09T15:15:28.181Z,13.68
2024-05-09T15:17:55.403Z,13.02
2024-05-09T15:20:31.042Z,14.43
2024-05-09T15:23:02.317Z,12.38
2024-05-09T15:25:29.235Z,10.30
2024-05-09T15:27:56.222Z,13.63
2024-05-09T15:32:52.834Z,11.13
2024-05-09T15:35:20.467Z,10.98
2024-05-09T15:37:47.266Z,11.93
2024-05-09T15:40:18.862Z,8.23
2024-05-09T15:42:52.930Z,12.55
2024-05-09T15:45:19.603Z,10.00
2024-05-09T15:47:46.302Z,7.30
2024-05-09T15:50:27.630Z,7.72
2024-05-09T15:52:59.329Z,6.75
2024-05-09T15:55:26.122Z,6.10
2024-05-09T15:57:57.410Z,7.68
2024-05-09T16:00:29.381Z,6.25
2024-05-09T16:03:04.889Z,7.47
2024-05-09T16:05:31.815Z,6.28
2024-05-09T16:07:58.768Z,8.30
2024-05-09T16:10:30.111Z,5.38
2024-05-09T16:12:59.506Z,5.25
2024-05-09T16:15:28.676Z,7.55
2024-05-09T16:17:56.661Z,5.93
2024-05-09T16:22:53.262Z,8.23
2024-05-09T16:25:20.141Z,5.68
2024-05-09T16:27:47.086Z,7.78
2024-05-09T16:30:21.292Z,8.25
2024-05-09T16:32:55.285Z,5.97
2024-05-09T16:35:22.044Z,5.30
2024-05-09T16:37:49.302Z,5.55
2024-05-09T16:40:25.223Z,9.98
2024-05-09T16:43:03.293Z,5.93
2024-05-09T16:45:30.292Z,6.38
2024-05-09T16:47:57.328Z,5.72
2024-05-09T16:50:29.437Z,8.88
2024-05-09T16:52:59.986Z,6.28
2024-05-09T16:55:26.973Z,4.90
2024-05-09T16:57:53.873Z,7.50
2024-05-09T17:00:31.095Z,6.28
2024-05-09T17:03:06.431Z,6.15
2024-05-09T17:05:34.060Z,8.90
2024-05-09T17:08:01.080Z,7.07
2024-05-09T17:10:32.666Z,7.40
2024-05-09T17:13:02.020Z,6.43
2024-05-09T17:15:28.892Z,7.55
2024-05-09T17:17:55.979Z,8.43
2024-05-09T17:20:29.798Z,7.00
2024-05-09T17:23:02.051Z,5.80
2024-05-09T17:25:31.263Z,5.13
2024-05-09T17:27:58.162Z,6.82
2024-05-09T17:30:32.121Z,5.15
2024-05-09T17:33:04.238Z,5.70
2024-05-09T17:35:32.075Z,5.78
2024-05-09T17:37:59.010Z,4.32
2024-05-09T17:40:32.495Z,4.82
2024-05-09T17:43:02.676Z,8.32
2024-05-09T17:45:29.731Z,7.53
2024-05-09T17:47:56.667Z,4.60
2024-05-09T17:50:30.354Z,5.55
2024-05-09T17:53:01.844Z,5.78
2024-05-09T17:55:28.856Z,4.97
2024-05-09T17:57:55.856Z,6.38
2024-05-09T18:00:33.087Z,5.15
2024-05-09T18:03:05.908Z,4.43
2024-05-09T18:05:33.045Z,6.18
2024-05-09T18:07:59.977Z,5.40
2024-05-09T18:10:33.740Z,5.10
2024-05-09T18:13:04.698Z,4.68
2024-05-09T18:15:31.623Z,5.90
2024-05-09T18:17:58.536Z,4.70
2024-05-09T18:20:36.062Z,4.55
2024-05-09T18:23:08.340Z,5.13
2024-05-09T18:25:35.175Z,4.75
2024-05-09T18:28:02.823Z,4.82
2024-05-09T18:30:34.742Z,5.75
2024-05-09T18:33:04.938Z,5.03
2024-05-09T18:35:32.739Z,4.68
2024-05-09T18:37:59.508Z,4.57
2024-05-09T18:40:32.962Z,4.40
2024-05-09T18:43:03.403Z,5.18
2024-05-09T18:45:30.697Z,4.68
2024-05-09T18:47:57.968Z,4.15
2024-05-09T18:50:33.745Z,4.43
2024-05-09T18:53:05.736Z,4.38
2024-05-09T18:55:32.587Z,6.60
2024-05-09T18:57:59.404Z,5.28
2024-05-09T19:00:34.122Z,5.18
2024-05-09T19:03:05.475Z,5.95
2024-05-09T19:05:36.284Z,5.40
2024-05-09T19:08:03.427Z,4.97
2024-05-09T19:10:34.348Z,5.78
2024-05-09T19:13:06.547Z,5.00
2024-05-09T19:15:40.464Z,5.50
2024-05-09T19:18:08.029Z,5.30
2024-05-09T19:20:36.558Z,5.03
2024-05-09T19:23:04.970Z,5.82
2024-05-09T19:25:32.910Z,4.68
2024-05-09T19:28:00.119Z,5.18
2024-05-09T19:30:36.414Z,6.50
2024-05-09T19:33:07.929Z,5.45
2024-05-09T19:35:34.877Z,4.85
2024-05-09T19:38:01.919Z,4.63
2024-05-09T19:40:32.043Z,6.00
2024-05-09T19:45:34.835Z,4.90
2024-05-09T19:48:02.627Z,4.78
2024-05-09T19:50:39.970Z,4.70
2024-05-09T19:53:10.816Z,4.35
2024-05-09T19:55:37.967Z,4.78
2024-05-09T19:58:06.329Z,5.57
2024-05-09T20:00:36.722Z,4.70
2024-05-09T20:03:05.827Z,5.13
2024-05-09T20:05:33.348Z,4.90
2024-05-09T20:08:00.297Z,4.88
2024-05-09T20:10:32.096Z,4.68
2024-05-09T20:13:01.381Z,4.90
2024-05-09T20:15:28.144Z,10.77
2024-05-09T20:17:55.287Z,4.30
2024-05-09T20:22:51.873Z,4.85
2024-05-09T20:25:18.662Z,4.72
2024-05-09T20:27:45.443Z,4.72
2024-05-09T20:30:14.698Z,4.80
2024-05-09T20:32:50.106Z,4.13
2024-05-09T20:35:17.052Z,5.30
2024-05-09T20:37:43.781Z,4.40
2024-05-09T20:40:18.173Z,4.68
2024-05-09T20:42:54.292Z,4.63
2024-05-09T20:45:21.022Z,4.68
2024-05-09T20:47:49.772Z,4.50
2024-05-09T20:50:27.851Z,4.70
2024-05-09T20:53:02.782Z,4.75
2024-05-09T20:55:29.615Z,5.05
2024-05-09T20:57:56.391Z,5.50
2024-05-09T21:00:30.022Z,5.13
2024-05-09T21:03:05.142Z,6.88
2024-05-09T21:05:32.202Z,5.65
2024-05-09T21:07:59.050Z,6.10
2024-05-09T21:10:27.181Z,5.18
2024-05-09T21:12:56.528Z,5.43
2024-05-09T21:15:23.251Z,5.45
2024-05-09T21:17:49.985Z,5.43
2024-05-09T21:20:20.670Z,5.45
2024-05-09T21:22:51.019Z,5.95
2024-05-09T21:25:17.769Z,5.88
2024-05-09T21:27:44.740Z,5.80
2024-05-09T21:30:18.651Z,6.40
2024-05-09T21:32:54.284Z,10.05
2024-05-09T21:35:21.311Z,7.10
2024-05-09T21:37:48.076Z,5.68
2024-05-09T21:40:24.254Z,6.38
2024-05-09T21:42:58.089Z,6.60
2024-05-09T21:45:24.914Z,6.20
2024-05-09T21:47:51.729Z,6.40
2024-05-09T21:50:23.222Z,6.55
2024-05-09T21:52:55.323Z,6.72
2024-05-09T21:55:22.152Z,7.00
2024-05-09T21:57:48.887Z,7.22
2024-05-09T22:00:28.146Z,7.18
2024-05-09T22:03:01.859Z,6.47
2024-05-09T22:05:28.727Z,7.13
2024-05-09T22:07:55.558Z,9.15
2024-05-09T22:10:26.524Z,7.20
2024-05-09T22:13:01.866Z,7.90
2024-05-09T22:15:28.855Z,7.38
2024-05-09T22:17:56.954Z,7.75
2024-05-09T22:20:32.945Z,7.88
2024-05-09T22:23:03.512Z,7.70
2024-05-09T22:25:31.209Z,7.43
2024-05-09T22:27:59.111Z,7.70
2024-05-09T22:30:34.240Z,7.93
2024-05-09T22:33:05.681Z,8.05
2024-05-09T22:35:32.936Z,8.10
2024-05-09T22:37:59.681Z,7.95
2024-05-09T22:40:38.408Z,7.55
2024-05-09T22:43:13.791Z,8.52
2024-05-09T22:45:40.905Z,8.10
2024-05-09T22:48:08.717Z,9.23
2024-05-09T22:50:35.826Z,8.45
2024-05-09T22:53:04.704Z,10.13
2024-05-09T22:55:31.351Z,9.80
2024-05-09T22:57:58.121Z,9.15
2024-05-09T23:00:31.098Z,10.23
2024-05-09T23:03:00.341Z,9.00
2024-05-09T23:05:27.504Z,9.07
2024-05-09T23:07:54.377Z,9.77
2024-05-09T23:10:31.700Z,9.68
2024-05-09T23:13:03.109Z,8.50
2024-05-09T23:15:30.192Z,9.48
2024-05-09T23:17:57.030Z,9.00
2024-05-09T23:20:33.403Z,11.60
2024-05-09T23:23:05.721Z,9.10
2024-05-09T23:25:34.968Z,9.35
2024-05-09T23:28:01.968Z,9.85
2024-05-09T23:30:36.624Z,10.15
2024-05-09T23:33:06.961Z,9.52
2024-05-09T23:35:33.985Z,9.02
2024-05-09T23:38:00.666Z,9.65
2024-05-09T23:40:37.419Z,10.32
2024-05-09T23:43:07.649Z,9.52
2024-05-09T23:45:35.001Z,11.10
2024-05-09T23:48:01.920Z,11.07
2024-05-09T23:50:35.803Z,9.85
2024-05-09T23:53:05.832Z,11.30
2024-05-09T23:55:33.101Z,9.75
2024-05-09T23:58:00.570Z,10.85
